sensor_id;sensor_type;location;lat;lon;timestamp;P1;durP1;ratioP1;P2;durP2;ratioP2
63316;SDS011;49822;41.468;13.560;2022-07-26T00:00:53;13.93;;;8.82;;
63316;SDS011;49822;41.468;13.560;2022-07-26T00:03:48;10.55;;;9.15;;
63316;SDS011;49822;41.468;13.560;2022-07-26T00:06:37;11.98;;;8.73;;
63316;SDS011;49822;41.468;13.560;2022-07-26T00:09:25;16.33;;;9.60;;
63316;SDS011;49822;41.468;13.560;2022-07-26T00:12:13;13.27;;;8.88;;
63316;SDS011;49822;41.468;13.560;2022-07-26T00:15:03;12.20;;;8.63;;
63316;SDS011;49822;41.468;13.560;2022-07-26T00:20:40;13.25;;;8.30;;
63316;SDS011;49822;41.468;13.560;2022-07-26T00:23:28;15.10;;;9.35;;
63316;SDS011;49822;41.468;13.560;2022-07-26T00:26:16;12.27;;;8.40;;
63316;SDS011;49822;41.468;13.560;2022-07-26T00:29:03;14.90;;;10.15;;
63316;SDS011;49822;41.468;13.560;2022-07-26T00:31:52;17.17;;;9.02;;
63316;SDS011;49822;41.468;13.560;2022-07-26T00:34:39;12.02;;;9.48;;
63316;SDS011;49822;41.468;13.560;2022-07-26T00:37:27;13.43;;;9.18;;
63316;SDS011;49822;41.468;13.560;2022-07-26T00:40:15;14.07;;;8.68;;
63316;SDS011;49822;41.468;13.560;2022-07-26T00:43:03;12.05;;;8.52;;
63316;SDS011;49822;41.468;13.560;2022-07-26T00:45:51;11.35;;;8.60;;
63316;SDS011;49822;41.468;13.560;2022-07-26T00:48:39;11.50;;;8.20;;
63316;SDS011;49822;41.468;13.560;2022-07-26T00:51:27;12.55;;;9.02;;
63316;SDS011;49822;41.468;13.560;2022-07-26T00:54:15;12.52;;;8.27;;
63316;SDS011;49822;41.468;13.560;2022-07-26T00:57:03;12.63;;;8.48;;
63316;SDS011;49822;41.468;13.560;2022-07-26T00:59:52;14.60;;;9.15;;
63316;SDS011;49822;41.468;13.560;2022-07-26T01:02:39;9.65;;;8.13;;
63316;SDS011;49822;41.468;13.560;2022-07-26T01:05:28;12.77;;;8.82;;
63316;SDS011;49822;41.468;13.560;2022-07-26T01:08:16;10.57;;;8.40;;
63316;SDS011;49822;41.468;13.560;2022-07-26T01:11:04;14.40;;;8.77;;
63316;SDS011;49822;41.468;13.560;2022-07-26T01:13:51;13.38;;;9.20;;
63316;SDS011;49822;41.468;13.560;2022-07-26T01:16:39;15.40;;;9.40;;
63316;SDS011;49822;41.468;13.560;2022-07-26T01:19:27;14.70;;;8.32;;
63316;SDS011;49822;41.468;13.560;2022-07-26T01:22:15;12.50;;;8.82;;
63316;SDS011;49822;41.468;13.560;2022-07-26T01:25:02;10.73;;;8.50;;
63316;SDS011;49822;41.468;13.560;2022-07-26T01:27:51;17.63;;;9.90;;
63316;SDS011;49822;41.468;13.560;2022-07-26T01:30:40;12.63;;;8.80;;
63316;SDS011;49822;41.468;13.560;2022-07-26T01:33:27;12.52;;;9.43;;
63316;SDS011;49822;41.468;13.560;2022-07-26T01:36:15;13.50;;;9.45;;
63316;SDS011;49822;41.468;13.560;2022-07-26T01:39:03;14.75;;;8.95;;
63316;SDS011;49822;41.468;13.560;2022-07-26T01:41:51;13.38;;;8.75;;
63316;SDS011;49822;41.468;13.560;2022-07-26T01:44:40;13.07;;;9.32;;
63316;SDS011;49822;41.468;13.560;2022-07-26T01:47:27;18.80;;;11.23;;
63316;SDS011;49822;41.468;13.560;2022-07-26T01:50:15;14.32;;;9.85;;
63316;SDS011;49822;41.468;13.560;2022-07-26T01:53:04;12.32;;;9.45;;
63316;SDS011;49822;41.468;13.560;2022-07-26T01:55:52;14.82;;;8.77;;
63316;SDS011;49822;41.468;13.560;2022-07-26T01:58:40;13.35;;;9.52;;
63316;SDS011;49822;41.468;13.560;2022-07-26T02:01:28;13.40;;;9.95;;
63316;SDS011;49822;41.468;13.560;2022-07-26T02:04:25;13.82;;;9.40;;
63316;SDS011;49822;41.468;13.560;2022-07-26T02:07:32;13.75;;;9.60;;
63316;SDS011;49822;41.468;13.560;2022-07-26T02:10:25;12.23;;;9.32;;
63316;SDS011;49822;41.468;13.560;2022-07-26T02:13:37;10.32;;;8.07;;
63316;SDS011;49822;41.468;13.560;2022-07-26T02:16:28;11.85;;;8.38;;
63316;SDS011;49822;41.468;13.560;2022-07-26T02:19:15;13.15;;;9.70;;
63316;SDS011;49822;41.468;13.560;2022-07-26T02:22:04;11.57;;;8.27;;
63316;SDS011;49822;41.468;13.560;2022-07-26T02:24:52;11.93;;;9.02;;
63316;SDS011;49822;41.468;13.560;2022-07-26T02:27:40;11.95;;;9.13;;
63316;SDS011;49822;41.468;13.560;2022-07-26T02:30:27;13.85;;;8.82;;
63316;SDS011;49822;41.468;13.560;2022-07-26T02:33:15;11.02;;;8.45;;
63316;SDS011;49822;41.468;13.560;2022-07-26T02:36:04;11.77;;;8.65;;
63316;SDS011;49822;41.468;13.560;2022-07-26T02:38:51;13.57;;;9.57;;
63316;SDS011;49822;41.468;13.560;2022-07-26T02:41:39;15.75;;;9.93;;
63316;SDS011;49822;41.468;13.560;2022-07-26T02:44:27;14.32;;;9.40;;
63316;SDS011;49822;41.468;13.560;2022-07-26T02:47:16;13.02;;;10.15;;
63316;SDS011;49822;41.468;13.560;2022-07-26T02:50:04;13.75;;;9.88;;
63316;SDS011;49822;41.468;13.560;2022-07-26T02:52:52;20.92;;;10.45;;
63316;SDS011;49822;41.468;13.560;2022-07-26T02:55:40;12.63;;;9.90;;
63316;SDS011;49822;41.468;13.560;2022-07-26T02:58:28;13.68;;;9.18;;
63316;SDS011;49822;41.468;13.560;2022-07-26T03:01:16;13.13;;;9.07;;
63316;SDS011;49822;41.468;13.560;2022-07-26T03:04:04;12.18;;;9.13;;
63316;SDS011;49822;41.468;13.560;2022-07-26T03:06:54;15.18;;;9.48;;
63316;SDS011;49822;41.468;13.560;2022-07-26T03:09:42;15.35;;;9.55;;
63316;SDS011;49822;41.468;13.560;2022-07-26T03:12:29;12.50;;;9.20;;
63316;SDS011;49822;41.468;13.560;2022-07-26T03:15:17;10.32;;;8.77;;
63316;SDS011;49822;41.468;13.560;2022-07-26T03:18:05;12.35;;;8.88;;
63316;SDS011;49822;41.468;13.560;2022-07-26T03:20:53;11.48;;;9.20;;
63316;SDS011;49822;41.468;13.560;2022-07-26T03:23:41;12.77;;;9.45;;
63316;SDS011;49822;41.468;13.560;2022-07-26T03:26:29;14.40;;;9.32;;
63316;SDS011;49822;41.468;13.560;2022-07-26T03:29:16;16.45;;;10.80;;
63316;SDS011;49822;41.468;13.560;2022-07-26T03:32:04;12.82;;;10.32;;
63316;SDS011;49822;41.468;13.560;2022-07-26T03:34:52;14.52;;;9.25;;
63316;SDS011;49822;41.468;13.560;2022-07-26T03:37:40;13.80;;;9.88;;
63316;SDS011;49822;41.468;13.560;2022-07-26T03:40:32;15.38;;;10.15;;
63316;SDS011;49822;41.468;13.560;2022-07-26T03:43:20;15.27;;;9.20;;
63316;SDS011;49822;41.468;13.560;2022-07-26T03:46:09;12.88;;;9.35;;
63316;SDS011;49822;41.468;13.560;2022-07-26T03:48:57;15.90;;;9.88;;
63316;SDS011;49822;41.468;13.560;2022-07-26T03:51:45;17.60;;;9.73;;
63316;SDS011;49822;41.468;13.560;2022-07-26T03:54:32;13.40;;;9.50;;
63316;SDS011;49822;41.468;13.560;2022-07-26T03:57:20;14.43;;;10.13;;
63316;SDS011;49822;41.468;13.560;2022-07-26T04:00:08;13.45;;;10.52;;
63316;SDS011;49822;41.468;13.560;2022-07-26T04:02:56;15.60;;;11.25;;
63316;SDS011;49822;41.468;13.560;2022-07-26T04:05:44;18.42;;;10.77;;
63316;SDS011;49822;41.468;13.560;2022-07-26T04:08:35;14.80;;;9.73;;
63316;SDS011;49822;41.468;13.560;2022-07-26T04:11:22;15.93;;;11.02;;
63316;SDS011;49822;41.468;13.560;2022-07-26T04:14:14;19.33;;;13.05;;
63316;SDS011;49822;41.468;13.560;2022-07-26T04:17:02;17.70;;;11.00;;
63316;SDS011;49822;41.468;13.560;2022-07-26T04:19:50;15.27;;;11.00;;
63316;SDS011;49822;41.468;13.560;2022-07-26T04:22:37;18.70;;;11.32;;
63316;SDS011;49822;41.468;13.560;2022-07-26T04:25:26;31.08;;;16.70;;
63316;SDS011;49822;41.468;13.560;2022-07-26T04:28:26;22.25;;;14.27;;
63316;SDS011;49822;41.468;13.560;2022-07-26T04:31:15;23.30;;;14.90;;
63316;SDS011;49822;41.468;13.560;2022-07-26T04:34:03;30.40;;;15.90;;
63316;SDS011;49822;41.468;13.560;2022-07-26T04:36:51;22.75;;;14.88;;
63316;SDS011;49822;41.468;13.560;2022-07-26T04:39:39;19.40;;;13.15;;
63316;SDS011;49822;41.468;13.560;2022-07-26T04:42:26;19.30;;;12.75;;
63316;SDS011;49822;41.468;13.560;2022-07-26T04:45:14;17.27;;;11.80;;
63316;SDS011;49822;41.468;13.560;2022-07-26T04:48:02;17.10;;;11.32;;
63316;SDS011;49822;41.468;13.560;2022-07-26T04:50:50;21.88;;;13.65;;
63316;SDS011;49822;41.468;13.560;2022-07-26T04:53:39;16.92;;;10.98;;
63316;SDS011;49822;41.468;13.560;2022-07-26T04:56:26;14.13;;;10.45;;
63316;SDS011;49822;41.468;13.560;2022-07-26T04:59:15;19.65;;;11.40;;
63316;SDS011;49822;41.468;13.560;2022-07-26T05:02:07;17.40;;;11.00;;
63316;SDS011;49822;41.468;13.560;2022-07-26T05:04:55;15.25;;;9.73;;
63316;SDS011;49822;41.468;13.560;2022-07-26T05:07:44;15.80;;;11.07;;
63316;SDS011;49822;41.468;13.560;2022-07-26T05:10:35;12.88;;;10.30;;
63316;SDS011;49822;41.468;13.560;2022-07-26T05:13:23;16.83;;;10.68;;
63316;SDS011;49822;41.468;13.560;2022-07-26T05:16:16;16.83;;;10.55;;
63316;SDS011;49822;41.468;13.560;2022-07-26T05:19:04;16.63;;;10.55;;
63316;SDS011;49822;41.468;13.560;2022-07-26T05:21:52;17.63;;;12.85;;
63316;SDS011;49822;41.468;13.560;2022-07-26T05:24:39;15.52;;;11.18;;
63316;SDS011;49822;41.468;13.560;2022-07-26T05:27:27;14.73;;;11.30;;
63316;SDS011;49822;41.468;13.560;2022-07-26T05:30:15;18.38;;;11.25;;
63316;SDS011;49822;41.468;13.560;2022-07-26T05:33:02;16.55;;;10.43;;
63316;SDS011;49822;41.468;13.560;2022-07-26T05:35:50;16.17;;;10.57;;
63316;SDS011;49822;41.468;13.560;2022-07-26T05:38:38;16.85;;;11.90;;
63316;SDS011;49822;41.468;13.560;2022-07-26T05:41:25;13.45;;;10.98;;
63316;SDS011;49822;41.468;13.560;2022-07-26T05:44:13;19.00;;;12.30;;
63316;SDS011;49822;41.468;13.560;2022-07-26T05:47:01;16.58;;;12.18;;
63316;SDS011;49822;41.468;13.560;2022-07-26T05:49:49;16.75;;;12.02;;
63316;SDS011;49822;41.468;13.560;2022-07-26T05:52:36;20.70;;;11.20;;
63316;SDS011;49822;41.468;13.560;2022-07-26T05:55:24;22.38;;;12.18;;
63316;SDS011;49822;41.468;13.560;2022-07-26T05:58:18;19.65;;;12.00;;
63316;SDS011;49822;41.468;13.560;2022-07-26T06:01:06;16.02;;;12.15;;
63316;SDS011;49822;41.468;13.560;2022-07-26T06:03:53;17.13;;;11.60;;
63316;SDS011;49822;41.468;13.560;2022-07-26T06:06:41;16.92;;;11.73;;
63316;SDS011;49822;41.468;13.560;2022-07-26T06:09:29;17.13;;;12.48;;
63316;SDS011;49822;41.468;13.560;2022-07-26T06:12:17;14.15;;;10.85;;
63316;SDS011;49822;41.468;13.560;2022-07-26T06:15:05;13.93;;;11.82;;
63316;SDS011;49822;41.468;13.560;2022-07-26T06:18:01;20.58;;;12.05;;
63316;SDS011;49822;41.468;13.560;2022-07-26T06:20:49;18.40;;;12.88;;
63316;SDS011;49822;41.468;13.560;2022-07-26T06:23:37;15.70;;;11.18;;
63316;SDS011;49822;41.468;13.560;2022-07-26T06:26:25;18.73;;;11.65;;
63316;SDS011;49822;41.468;13.560;2022-07-26T06:29:12;20.30;;;11.95;;
63316;SDS011;49822;41.468;13.560;2022-07-26T06:32:00;15.00;;;11.73;;
63316;SDS011;49822;41.468;13.560;2022-07-26T06:34:48;16.48;;;10.93;;
63316;SDS011;49822;41.468;13.560;2022-07-26T06:37:36;19.92;;;12.10;;
63316;SDS011;49822;41.468;13.560;2022-07-26T06:40:24;19.63;;;12.45;;
63316;SDS011;49822;41.468;13.560;2022-07-26T06:43:12;15.68;;;11.35;;
63316;SDS011;49822;41.468;13.560;2022-07-26T06:46:01;15.63;;;11.48;;
63316;SDS011;49822;41.468;13.560;2022-07-26T06:48:49;16.20;;;10.85;;
63316;SDS011;49822;41.468;13.560;2022-07-26T06:51:42;20.70;;;10.85;;
63316;SDS011;49822;41.468;13.560;2022-07-26T06:57:46;15.35;;;10.57;;
63316;SDS011;49822;41.468;13.560;2022-07-26T07:00:36;11.45;;;9.18;;
63316;SDS011;49822;41.468;13.560;2022-07-26T07:03:24;14.93;;;9.80;;
63316;SDS011;49822;41.468;13.560;2022-07-26T07:06:11;12.70;;;10.45;;
63316;SDS011;49822;41.468;13.560;2022-07-26T07:09:02;14.10;;;10.68;;
63316;SDS011;49822;41.468;13.560;2022-07-26T07:11:54;17.02;;;11.15;;
63316;SDS011;49822;41.468;13.560;2022-07-26T07:14:52;15.38;;;10.68;;
63316;SDS011;49822;41.468;13.560;2022-07-26T07:17:40;17.08;;;10.80;;
63316;SDS011;49822;41.468;13.560;2022-07-26T07:20:27;18.65;;;11.25;;
63316;SDS011;49822;41.468;13.560;2022-07-26T07:23:18;13.65;;;10.07;;
63316;SDS011;49822;41.468;13.560;2022-07-26T07:28:55;14.57;;;10.98;;
63316;SDS011;49822;41.468;13.560;2022-07-26T07:31:47;14.00;;;9.68;;
63316;SDS011;49822;41.468;13.560;2022-07-26T07:34:35;14.90;;;10.30;;
63316;SDS011;49822;41.468;13.560;2022-07-26T07:37:23;18.77;;;10.63;;
63316;SDS011;49822;41.468;13.560;2022-07-26T07:40:11;12.60;;;9.85;;
63316;SDS011;49822;41.468;13.560;2022-07-26T07:42:59;15.10;;;9.88;;
63316;SDS011;49822;41.468;13.560;2022-07-26T07:45:47;13.27;;;10.82;;
63316;SDS011;49822;41.468;13.560;2022-07-26T07:48:35;10.90;;;9.38;;
63316;SDS011;49822;41.468;13.560;2022-07-26T07:51:30;14.85;;;11.10;;
63316;SDS011;49822;41.468;13.560;2022-07-26T07:54:21;13.43;;;9.77;;
63316;SDS011;49822;41.468;13.560;2022-07-26T07:57:10;14.68;;;10.43;;
63316;SDS011;49822;41.468;13.560;2022-07-26T07:59:59;12.88;;;9.75;;
63316;SDS011;49822;41.468;13.560;2022-07-26T08:02:57;14.25;;;10.50;;
63316;SDS011;49822;41.468;13.560;2022-07-26T08:05:47;15.25;;;10.60;;
63316;SDS011;49822;41.468;13.560;2022-07-26T08:08:37;17.00;;;10.60;;
63316;SDS011;49822;41.468;13.560;2022-07-26T08:11:25;11.75;;;9.65;;
63316;SDS011;49822;41.468;13.560;2022-07-26T08:14:15;14.70;;;9.95;;
63316;SDS011;49822;41.468;13.560;2022-07-26T08:17:03;12.30;;;10.00;;
63316;SDS011;49822;41.468;13.560;2022-07-26T08:19:51;12.73;;;9.57;;
63316;SDS011;49822;41.468;13.560;2022-07-26T08:22:46;12.02;;;9.15;;
63316;SDS011;49822;41.468;13.560;2022-07-26T08:25:33;14.80;;;9.77;;
63316;SDS011;49822;41.468;13.560;2022-07-26T08:28:21;13.55;;;9.75;;
63316;SDS011;49822;41.468;13.560;2022-07-26T08:31:29;11.77;;;9.05;;
63316;SDS011;49822;41.468;13.560;2022-07-26T08:34:17;14.35;;;9.70;;
63316;SDS011;49822;41.468;13.560;2022-07-26T08:37:07;13.50;;;8.88;;
63316;SDS011;49822;41.468;13.560;2022-07-26T08:40:05;13.93;;;9.82;;
63316;SDS011;49822;41.468;13.560;2022-07-26T08:42:54;15.23;;;9.45;;
63316;SDS011;49822;41.468;13.560;2022-07-26T08:45:42;13.27;;;9.75;;
63316;SDS011;49822;41.468;13.560;2022-07-26T08:48:31;15.13;;;9.13;;
63316;SDS011;49822;41.468;13.560;2022-07-26T08:51:25;13.38;;;9.25;;
63316;SDS011;49822;41.468;13.560;2022-07-26T08:54:13;14.93;;;9.63;;
63316;SDS011;49822;41.468;13.560;2022-07-26T08:57:01;19.02;;;10.00;;
63316;SDS011;49822;41.468;13.560;2022-07-26T09:00:12;12.18;;;8.65;;
63316;SDS011;49822;41.468;13.560;2022-07-26T09:03:05;12.88;;;9.80;;
63316;SDS011;49822;41.468;13.560;2022-07-26T09:05:52;16.05;;;9.60;;
63316;SDS011;49822;41.468;13.560;2022-07-26T09:08:40;15.85;;;9.68;;
63316;SDS011;49822;41.468;13.560;2022-07-26T09:11:29;12.13;;;9.25;;
63316;SDS011;49822;41.468;13.560;2022-07-26T09:14:19;12.23;;;9.32;;
63316;SDS011;49822;41.468;13.560;2022-07-26T09:17:06;16.83;;;9.88;;
63316;SDS011;49822;41.468;13.560;2022-07-26T09:20:05;14.27;;;9.63;;
63316;SDS011;49822;41.468;13.560;2022-07-26T09:23:04;11.75;;;8.85;;
63316;SDS011;49822;41.468;13.560;2022-07-26T09:25:57;11.90;;;9.25;;
63316;SDS011;49822;41.468;13.560;2022-07-26T09:29:07;14.48;;;9.55;;
63316;SDS011;49822;41.468;13.560;2022-07-26T09:38:44;11.60;;;8.63;;
63316;SDS011;49822;41.468;13.560;2022-07-26T09:41:36;17.73;;;9.40;;
63316;SDS011;49822;41.468;13.560;2022-07-26T09:44:25;13.75;;;9.15;;
63316;SDS011;49822;41.468;13.560;2022-07-26T09:47:12;17.95;;;10.10;;
63316;SDS011;49822;41.468;13.560;2022-07-26T09:50:13;14.48;;;10.23;;
63316;SDS011;49822;41.468;13.560;2022-07-26T09:53:07;12.85;;;9.05;;
63316;SDS011;49822;41.468;13.560;2022-07-26T09:55:56;13.05;;;9.50;;
63316;SDS011;49822;41.468;13.560;2022-07-26T09:58:44;13.57;;;9.23;;
63316;SDS011;49822;41.468;13.560;2022-07-26T10:01:34;15.57;;;9.30;;
63316;SDS011;49822;41.468;13.560;2022-07-26T10:04:22;15.23;;;9.23;;
63316;SDS011;49822;41.468;13.560;2022-07-26T10:07:11;12.90;;;9.27;;
63316;SDS011;49822;41.468;13.560;2022-07-26T10:12:59;12.27;;;9.57;;
63316;SDS011;49822;41.468;13.560;2022-07-26T10:15:51;15.15;;;9.98;;
63316;SDS011;49822;41.468;13.560;2022-07-26T10:18:41;17.58;;;9.80;;
63316;SDS011;49822;41.468;13.560;2022-07-26T10:21:32;13.48;;;9.77;;
63316;SDS011;49822;41.468;13.560;2022-07-26T10:24:24;11.55;;;9.57;;
63316;SDS011;49822;41.468;13.560;2022-07-26T10:30:25;15.73;;;9.65;;
63316;SDS011;49822;41.468;13.560;2022-07-26T10:33:21;14.90;;;9.77;;
63316;SDS011;49822;41.468;13.560;2022-07-26T10:36:22;13.90;;;9.85;;
63316;SDS011;49822;41.468;13.560;2022-07-26T10:39:15;15.85;;;9.40;;
63316;SDS011;49822;41.468;13.560;2022-07-26T10:42:10;13.65;;;9.88;;
63316;SDS011;49822;41.468;13.560;2022-07-26T10:45:14;17.20;;;9.77;;
63316;SDS011;49822;41.468;13.560;2022-07-26T10:51:00;16.42;;;9.82;;
63316;SDS011;49822;41.468;13.560;2022-07-26T10:54:15;16.95;;;9.30;;
63316;SDS011;49822;41.468;13.560;2022-07-26T10:57:03;21.23;;;11.15;;
63316;SDS011;49822;41.468;13.560;2022-07-26T10:59:51;12.93;;;10.00;;
63316;SDS011;49822;41.468;13.560;2022-07-26T11:02:43;13.68;;;9.82;;
63316;SDS011;49822;41.468;13.560;2022-07-26T11:05:34;15.80;;;10.48;;
63316;SDS011;49822;41.468;13.560;2022-07-26T11:08:27;18.75;;;10.50;;
63316;SDS011;49822;41.468;13.560;2022-07-26T11:11:26;14.85;;;9.10;;
63316;SDS011;49822;41.468;13.560;2022-07-26T11:14:18;13.07;;;9.57;;
63316;SDS011;49822;41.468;13.560;2022-07-26T11:17:06;13.40;;;9.45;;
63316;SDS011;49822;41.468;13.560;2022-07-26T11:19:54;15.05;;;9.52;;
63316;SDS011;49822;41.468;13.560;2022-07-26T11:22:42;13.68;;;8.98;;
63316;SDS011;49822;41.468;13.560;2022-07-26T11:25:30;13.32;;;9.07;;
63316;SDS011;49822;41.468;13.560;2022-07-26T11:28:18;12.77;;;8.75;;
63316;SDS011;49822;41.468;13.560;2022-07-26T11:31:08;14.48;;;9.50;;
63316;SDS011;49822;41.468;13.560;2022-07-26T11:34:00;14.93;;;8.85;;
63316;SDS011;49822;41.468;13.560;2022-07-26T11:36:57;15.23;;;8.90;;
63316;SDS011;49822;41.468;13.560;2022-07-26T11:39:47;15.13;;;8.80;;
63316;SDS011;49822;41.468;13.560;2022-07-26T11:42:34;12.70;;;9.15;;
63316;SDS011;49822;41.468;13.560;2022-07-26T11:45:22;14.55;;;8.55;;
63316;SDS011;49822;41.468;13.560;2022-07-26T11:48:10;14.15;;;8.27;;
63316;SDS011;49822;41.468;13.560;2022-07-26T11:51:10;13.75;;;8.60;;
63316;SDS011;49822;41.468;13.560;2022-07-26T11:54:01;10.80;;;7.63;;
63316;SDS011;49822;41.468;13.560;2022-07-26T11:56:50;11.32;;;7.85;;
63316;SDS011;49822;41.468;13.560;2022-07-26T11:59:40;17.35;;;7.57;;
63316;SDS011;49822;41.468;13.560;2022-07-26T12:05:18;11.27;;;8.68;;
63316;SDS011;49822;41.468;13.560;2022-07-26T12:08:08;19.38;;;8.70;;
63316;SDS011;49822;41.468;13.560;2022-07-26T12:10:56;15.35;;;8.60;;
63316;SDS011;49822;41.468;13.560;2022-07-26T12:13:48;12.23;;;8.35;;
63316;SDS011;49822;41.468;13.560;2022-07-26T12:16:47;10.70;;;6.90;;
63316;SDS011;49822;41.468;13.560;2022-07-26T12:19:35;10.40;;;6.97;;
63316;SDS011;49822;41.468;13.560;2022-07-26T12:22:23;11.77;;;6.75;;
63316;SDS011;49822;41.468;13.560;2022-07-26T12:25:11;13.93;;;8.43;;
63316;SDS011;49822;41.468;13.560;2022-07-26T12:28:09;13.02;;;7.85;;
63316;SDS011;49822;41.468;13.560;2022-07-26T12:30:57;13.55;;;7.15;;
63316;SDS011;49822;41.468;13.560;2022-07-26T12:33:48;11.05;;;7.25;;
63316;SDS011;49822;41.468;13.560;2022-07-26T12:36:36;13.38;;;7.82;;
63316;SDS011;49822;41.468;13.560;2022-07-26T12:39:24;16.55;;;7.38;;
63316;SDS011;49822;41.468;13.560;2022-07-26T12:42:21;13.07;;;6.90;;
63316;SDS011;49822;41.468;13.560;2022-07-26T12:45:21;13.77;;;7.45;;
63316;SDS011;49822;41.468;13.560;2022-07-26T12:48:12;16.52;;;7.32;;
63316;SDS011;49822;41.468;13.560;2022-07-26T12:51:00;10.27;;;7.63;;
63316;SDS011;49822;41.468;13.560;2022-07-26T12:53:48;12.70;;;7.18;;
63316;SDS011;49822;41.468;13.560;2022-07-26T12:56:35;11.75;;;8.00;;
63316;SDS011;49822;41.468;13.560;2022-07-26T12:59:23;13.98;;;7.50;;
63316;SDS011;49822;41.468;13.560;2022-07-26T13:02:11;13.23;;;7.25;;
63316;SDS011;49822;41.468;13.560;2022-07-26T13:04:59;15.23;;;6.68;;
63316;SDS011;49822;41.468;13.560;2022-07-26T13:07:49;13.40;;;6.95;;
63316;SDS011;49822;41.468;13.560;2022-07-26T13:10:39;12.85;;;6.78;;
63316;SDS011;49822;41.468;13.560;2022-07-26T13:16:15;18.60;;;6.80;;
63316;SDS011;49822;41.468;13.560;2022-07-26T13:19:05;13.45;;;7.15;;
63316;SDS011;49822;41.468;13.560;2022-07-26T13:21:54;10.13;;;6.95;;
63316;SDS011;49822;41.468;13.560;2022-07-26T13:24:43;12.70;;;7.15;;
63316;SDS011;49822;41.468;13.560;2022-07-26T13:27:32;17.98;;;7.65;;
63316;SDS011;49822;41.468;13.560;2022-07-26T13:30:22;10.52;;;7.38;;
63316;SDS011;49822;41.468;13.560;2022-07-26T13:33:10;11.00;;;7.00;;
63316;SDS011;49822;41.468;13.560;2022-07-26T13:35:58;11.32;;;7.22;;
63316;SDS011;49822;41.468;13.560;2022-07-26T13:38:46;15.13;;;6.90;;
63316;SDS011;49822;41.468;13.560;2022-07-26T13:41:33;14.18;;;7.32;;
63316;SDS011;49822;41.468;13.560;2022-07-26T13:44:23;13.95;;;7.63;;
63316;SDS011;49822;41.468;13.560;2022-07-26T13:47:11;13.05;;;7.25;;
63316;SDS011;49822;41.468;13.560;2022-07-26T13:49:58;11.57;;;7.10;;
63316;SDS011;49822;41.468;13.560;2022-07-26T13:52:46;10.95;;;6.93;;
63316;SDS011;49822;41.468;13.560;2022-07-26T13:55:34;13.13;;;7.40;;
63316;SDS011;49822;41.468;13.560;2022-07-26T13:58:22;13.55;;;7.28;;
63316;SDS011;49822;41.468;13.560;2022-07-26T14:01:09;9.48;;;7.82;;
63316;SDS011;49822;41.468;13.560;2022-07-26T14:03:57;13.98;;;7.15;;
63316;SDS011;49822;41.468;13.560;2022-07-26T14:06:46;12.85;;;7.65;;
63316;SDS011;49822;41.468;13.560;2022-07-26T14:09:33;12.07;;;7.88;;
63316;SDS011;49822;41.468;13.560;2022-07-26T14:12:21;12.55;;;6.82;;
63316;SDS011;49822;41.468;13.560;2022-07-26T14:15:09;14.73;;;7.13;;
63316;SDS011;49822;41.468;13.560;2022-07-26T14:18:03;9.77;;;6.63;;
63316;SDS011;49822;41.468;13.560;2022-07-26T14:20:51;10.38;;;7.00;;
63316;SDS011;49822;41.468;13.560;2022-07-26T14:23:40;10.27;;;7.05;;
63316;SDS011;49822;41.468;13.560;2022-07-26T14:26:27;10.13;;;6.53;;
63316;SDS011;49822;41.468;13.560;2022-07-26T14:29:15;10.82;;;7.50;;
63316;SDS011;49822;41.468;13.560;2022-07-26T14:32:03;10.15;;;6.70;;
63316;SDS011;49822;41.468;13.560;2022-07-26T14:34:51;11.05;;;7.05;;
63316;SDS011;49822;41.468;13.560;2022-07-26T14:37:39;10.40;;;7.32;;
63316;SDS011;49822;41.468;13.560;2022-07-26T14:40:31;13.43;;;7.10;;
63316;SDS011;49822;41.468;13.560;2022-07-26T14:43:19;10.77;;;7.38;;
63316;SDS011;49822;41.468;13.560;2022-07-26T14:46:07;13.98;;;7.43;;
63316;SDS011;49822;41.468;13.560;2022-07-26T14:48:55;12.43;;;7.50;;
63316;SDS011;49822;41.468;13.560;2022-07-26T14:51:43;9.07;;;6.82;;
63316;SDS011;49822;41.468;13.560;2022-07-26T14:54:33;11.20;;;7.10;;
63316;SDS011;49822;41.468;13.560;2022-07-26T14:57:21;11.02;;;6.80;;
63316;SDS011;49822;41.468;13.560;2022-07-26T15:00:10;11.55;;;6.95;;
63316;SDS011;49822;41.468;13.560;2022-07-26T15:03:00;10.85;;;6.75;;
63316;SDS011;49822;41.468;13.560;2022-07-26T15:05:48;10.23;;;6.88;;
63316;SDS011;49822;41.468;13.560;2022-07-26T15:08:36;14.65;;;7.60;;
63316;SDS011;49822;41.468;13.560;2022-07-26T15:11:23;9.32;;;6.55;;
63316;SDS011;49822;41.468;13.560;2022-07-26T15:14:12;12.35;;;7.40;;
63316;SDS011;49822;41.468;13.560;2022-07-26T15:17:00;14.50;;;7.03;;
63316;SDS011;49822;41.468;13.560;2022-07-26T15:19:48;16.88;;;7.75;;
63316;SDS011;49822;41.468;13.560;2022-07-26T15:22:36;13.43;;;7.38;;
63316;SDS011;49822;41.468;13.560;2022-07-26T15:25:23;13.48;;;7.88;;
63316;SDS011;49822;41.468;13.560;2022-07-26T15:28:11;8.30;;;6.53;;
63316;SDS011;49822;41.468;13.560;2022-07-26T15:30:59;11.45;;;7.55;;
63316;SDS011;49822;41.468;13.560;2022-07-26T15:33:47;12.25;;;7.40;;
63316;SDS011;49822;41.468;13.560;2022-07-26T15:36:34;8.77;;;7.13;;
63316;SDS011;49822;41.468;13.560;2022-07-26T15:39:25;11.43;;;7.45;;
63316;SDS011;49822;41.468;13.560;2022-07-26T15:42:12;13.35;;;7.70;;
63316;SDS011;49822;41.468;13.560;2022-07-26T15:45:01;12.48;;;7.70;;
63316;SDS011;49822;41.468;13.560;2022-07-26T15:47:55;9.77;;;7.18;;
63316;SDS011;49822;41.468;13.560;2022-07-26T15:51:01;9.57;;;6.68;;
63316;SDS011;49822;41.468;13.560;2022-07-26T15:53:49;9.25;;;6.90;;
63316;SDS011;49822;41.468;13.560;2022-07-26T15:56:37;9.15;;;6.65;;
63316;SDS011;49822;41.468;13.560;2022-07-26T15:59:25;12.43;;;7.15;;
63316;SDS011;49822;41.468;13.560;2022-07-26T16:02:13;10.10;;;6.53;;
63316;SDS011;49822;41.468;13.560;2022-07-26T16:05:02;11.95;;;6.75;;
63316;SDS011;49822;41.468;13.560;2022-07-26T16:07:51;13.93;;;7.53;;
63316;SDS011;49822;41.468;13.560;2022-07-26T16:10:38;9.75;;;6.88;;
63316;SDS011;49822;41.468;13.560;2022-07-26T16:13:26;9.93;;;7.10;;
63316;SDS011;49822;41.468;13.560;2022-07-26T16:16:14;13.02;;;7.03;;
63316;SDS011;49822;41.468;13.560;2022-07-26T16:19:02;16.98;;;7.90;;
63316;SDS011;49822;41.468;13.560;2022-07-26T16:21:49;14.32;;;8.05;;
63316;SDS011;49822;41.468;13.560;2022-07-26T16:24:37;13.80;;;7.80;;
63316;SDS011;49822;41.468;13.560;2022-07-26T16:27:25;14.00;;;7.53;;
63316;SDS011;49822;41.468;13.560;2022-07-26T16:30:13;17.58;;;8.20;;
63316;SDS011;49822;41.468;13.560;2022-07-26T16:33:02;10.35;;;6.80;;
63316;SDS011;49822;41.468;13.560;2022-07-26T16:35:50;14.60;;;7.93;;
63316;SDS011;49822;41.468;13.560;2022-07-26T16:38:38;13.38;;;7.85;;
63316;SDS011;49822;41.468;13.560;2022-07-26T16:41:25;13.23;;;7.70;;
63316;SDS011;49822;41.468;13.560;2022-07-26T16:44:15;14.60;;;7.43;;
63316;SDS011;49822;41.468;13.560;2022-07-26T16:47:02;14.32;;;7.88;;
63316;SDS011;49822;41.468;13.560;2022-07-26T16:49:50;13.93;;;8.07;;
63316;SDS011;49822;41.468;13.560;2022-07-26T16:52:38;14.02;;;7.68;;
63316;SDS011;49822;41.468;13.560;2022-07-26T16:55:26;14.68;;;7.60;;
63316;SDS011;49822;41.468;13.560;2022-07-26T16:58:14;12.48;;;7.78;;